createdAt,value
2022-09-20T00:00:26.369Z,102060.97
2022-09-20T00:01:03.793Z,102056.38
2022-09-20T00:01:35.952Z,102059.31
2022-09-20T00:02:07.593Z,102058.97
2022-09-20T00:02:39.186Z,102062.94
2022-09-20T00:03:12.014Z,102060.13
2022-09-20T00:03:45.948Z,102058.66
2022-09-20T00:04:17.461Z,102053.03
2022-09-20T00:04:49.796Z,102053.03
2022-09-20T00:05:21.351Z,102055.69
2022-09-20T00:05:52.862Z,102056.53
2022-09-20T00:06:30.012Z,102055.75
2022-09-20T00:07:01.539Z,102049.78
2022-09-20T00:07:33.071Z,102049.78
2022-09-20T00:08:06.404Z,102054.09
2022-09-20T00:08:38.729Z,102049.78
2022-09-20T00:09:10.411Z,102053.50
2022-09-20T00:09:41.983Z,102054.44
2022-09-20T00:10:14.172Z,102050.00
2022-09-20T00:10:46.278Z,102050.81
2022-09-20T00:11:23.919Z,102048.78
2022-09-20T00:11:55.414Z,102052.47
2022-09-20T00:12:27.117Z,102054.44
2022-09-20T00:12:58.678Z,102052.44
2022-09-20T00:13:31.032Z,102055.53
2022-09-20T00:14:05.997Z,102053.25
2022-09-20T00:14:37.525Z,102052.44
2022-09-20T00:15:09.471Z,102056.34
2022-09-20T00:15:44.959Z,102048.06
2022-09-20T00:16:22.566Z,102056.72
2022-09-20T00:16:54.173Z,102048.28
2022-09-20T00:17:25.710Z,102059.31
2022-09-20T00:17:57.617Z,102060.81
2022-09-20T00:18:29.135Z,102054.03
2022-09-20T00:19:03.817Z,102060.00
2022-09-20T00:19:35.293Z,102051.91
2022-09-20T00:20:07.192Z,102058.19
2022-09-20T00:20:49.436Z,102051.91
2022-09-20T00:21:23.246Z,102056.56
2022-09-20T00:21:54.744Z,102052.94
2022-09-20T00:22:27.524Z,102052.47
2022-09-20T00:22:59.023Z,102054.25
2022-09-20T00:23:31.230Z,102054.13
2022-09-20T00:24:03.571Z,102055.41
2022-09-20T00:24:36.679Z,102064.34
2022-09-20T00:25:08.818Z,102055.75
2022-09-20T00:25:40.665Z,102051.78
2022-09-20T00:26:13.904Z,102056.75
2022-09-20T00:26:45.455Z,102058.72
2022-09-20T00:27:17.004Z,102060.03
2022-09-20T00:27:49.005Z,102053.13
2022-09-20T00:28:20.797Z,102061.34
2022-09-20T00:28:52.577Z,102058.56
2022-09-20T00:29:25.370Z,102057.88
2022-09-20T00:29:57.195Z,102061.03
2022-09-20T00:30:29.295Z,102057.75
2022-09-20T00:31:00.868Z,102059.75
2022-09-20T00:31:32.493Z,102053.13
2022-09-20T00:32:04.243Z,102059.91
2022-09-20T00:32:36.017Z,102056.59
2022-09-20T00:33:07.540Z,102048.00
2022-09-20T00:33:58.282Z,102057.09
2022-09-20T00:34:48.383Z,102055.09
2022-09-20T00:35:19.870Z,102058.09
2022-09-20T00:35:51.425Z,102051.97
2022-09-20T00:36:23.426Z,102054.44
2022-09-20T00:36:54.899Z,102051.81
2022-09-20T00:37:26.588Z,102064.09
2022-09-20T00:37:58.115Z,102052.78
2022-09-20T00:38:29.639Z,102058.63
2022-09-20T00:39:02.411Z,102060.94
2022-09-20T00:39:33.866Z,102050.84
2022-09-20T00:40:07.669Z,102059.09
2022-09-20T00:40:43.884Z,102049.81
2022-09-20T00:41:16.692Z,102062.56
2022-09-20T00:41:48.160Z,102056.09
2022-09-20T00:42:19.640Z,102058.09
2022-09-20T00:42:51.125Z,102057.09
2022-09-20T00:43:36.674Z,102061.44
2022-09-20T00:44:45.933Z,102064.09
2022-09-20T00:45:23.616Z,102056.16
2022-09-20T00:45:55.228Z,102063.09
2022-09-20T00:46:29.070Z,102061.94
2022-09-20T00:47:01.274Z,102070.50
2022-09-20T00:47:45.457Z,102064.75
2022-09-20T00:48:26.121Z,102066.75
2022-09-20T00:49:08.567Z,102061.22
2022-09-20T00:49:40.216Z,102069.72
2022-09-20T00:50:33.320Z,102069.06
2022-09-20T00:51:09.971Z,102066.56
2022-09-20T00:51:44.592Z,102065.59
2022-09-20T00:52:17.259Z,102074.38
2022-09-20T00:52:52.694Z,102067.59
2022-09-20T00:53:28.504Z,102072.06
2022-09-20T00:54:02.695Z,102069.41
2022-09-20T00:54:34.385Z,102071.72
2022-09-20T00:55:08.134Z,102068.41
2022-09-20T00:55:48.292Z,102073.53
2022-09-20T00:56:22.540Z,102061.06
2022-09-20T00:56:54.161Z,102069.56
2022-09-20T00:57:25.727Z,102063.88
2022-09-20T00:57:57.768Z,102070.00
2022-09-20T00:58:30.483Z,102066.03
2022-09-20T00:59:09.498Z,102068.34
2022-09-20T00:59:43.468Z,102072.28
2022-09-20T01:00:15.529Z,102067.59
2022-09-20T01:00:48.375Z,102072.63
2022-09-20T01:01:19.992Z,102066.34
2022-09-20T01:02:03.072Z,102076.19
2022-09-20T01:02:37.985Z,102072.38
2022-09-20T01:03:11.109Z,102074.53
2022-09-20T01:03:43.192Z,102073.41
2022-09-20T01:04:16.513Z,102072.28
2022-09-20T01:04:49.150Z,102074.53
2022-09-20T01:05:20.944Z,102069.66
2022-09-20T01:05:53.666Z,102070.97
2022-09-20T01:06:25.231Z,102072.31
2022-09-20T01:06:59.578Z,102071.66
2022-09-20T01:07:31.291Z,102069.81
2022-09-20T01:08:03.113Z,102071.94
2022-09-20T01:08:35.344Z,102073.94
2022-09-20T01:09:07.755Z,102076.03
2022-09-20T01:09:39.340Z,102066.97
2022-09-20T01:10:10.877Z,102076.72
2022-09-20T01:10:43.064Z,102072.13
2022-09-20T01:11:14.593Z,102072.97
2022-09-20T01:11:47.037Z,102073.97
2022-09-20T01:12:21.169Z,102075.59
2022-09-20T01:12:53.877Z,102070.47
2022-09-20T01:13:25.624Z,102072.72
2022-09-20T01:13:57.668Z,102079.84
2022-09-20T01:14:29.386Z,102070.59
2022-09-20T01:15:03.824Z,102077.69
2022-09-20T01:15:36.762Z,102076.53
2022-09-20T01:16:09.359Z,102080.81
2022-09-20T01:16:41.331Z,102078.00
2022-09-20T01:17:14.014Z,102070.91
2022-09-20T01:17:48.811Z,102077.50
2022-09-20T01:18:21.973Z,102074.53
2022-09-20T01:18:55.443Z,102080.16
2022-09-20T01:19:40.470Z,102073.69
2022-09-20T01:20:19.419Z,102076.34
2022-09-20T01:20:50.994Z,102073.50
2022-09-20T01:21:22.762Z,102075.31
2022-09-20T01:21:54.769Z,102073.53
2022-09-20T01:22:44.374Z,102078.47
2022-09-20T01:23:36.020Z,102080.09
2022-09-20T01:24:14.928Z,102080.41
2022-09-20T01:24:55.772Z,102076.97
2022-09-20T01:25:44.026Z,102073.53
2022-09-20T01:26:37.075Z,102068.88
2022-09-20T01:27:47.880Z,102073.16
2022-09-20T01:28:19.469Z,102072.19
2022-09-20T01:29:17.741Z,102073.84
2022-09-20T01:30:00.608Z,102072.00
2022-09-20T01:30:39.037Z,102085.56
2022-09-20T01:31:28.641Z,102074.13
2022-09-20T01:32:02.053Z,102077.91
2022-09-20T01:33:10.714Z,102083.66
2022-09-20T01:33:59.507Z,102079.22
2022-09-20T01:34:35.650Z,102072.84
2022-09-20T01:35:09.050Z,102077.78
2022-09-20T01:35:42.053Z,102072.09
2022-09-20T01:36:19.169Z,102075.22
2022-09-20T01:36:54.904Z,102075.38
2022-09-20T01:37:28.277Z,102074.56
2022-09-20T01:38:24.715Z,102079.38
2022-09-20T01:39:31.230Z,102076.38
2022-09-20T01:40:28.092Z,102075.03
2022-09-20T01:41:17.637Z,102078.66
2022-09-20T01:41:52.430Z,102073.88
2022-09-20T01:42:38.143Z,102076.69
2022-09-20T01:43:52.684Z,102075.69
2022-09-20T01:44:48.415Z,102075.41
2022-09-20T01:45:28.255Z,102069.75
2022-09-20T01:46:13.911Z,102074.19
2022-09-20T01:46:45.895Z,102071.03
2022-09-20T01:47:38.889Z,102081.97
2022-09-20T01:48:18.040Z,102072.41
2022-09-20T01:48:50.840Z,102074.88
2022-09-20T01:50:01.180Z,102080.63
2022-09-20T01:51:11.138Z,102075.97
2022-09-20T01:51:56.444Z,102069.94
2022-09-20T01:52:46.468Z,102070.44
2022-09-20T01:53:36.161Z,102076.38
2022-09-20T01:54:38.676Z,102071.72
2022-09-20T01:55:25.732Z,102071.72
2022-09-20T01:56:33.700Z,102068.28
2022-09-20T01:57:13.160Z,102070.06
2022-09-20T01:58:06.574Z,102070.88
2022-09-20T01:59:23.270Z,102075.16
2022-09-20T01:59:58.854Z,102070.13
2022-09-20T02:00:55.089Z,102065.25
2022-09-20T02:01:38.887Z,102068.72
2022-09-20T02:02:22.241Z,102067.75
2022-09-20T02:03:26.539Z,102067.41
2022-09-20T02:04:31.464Z,102063.97
2022-09-20T02:05:15.500Z,102063.09
2022-09-20T02:06:12.864Z,102070.00
2022-09-20T02:06:51.100Z,102070.97
2022-09-20T02:07:43.007Z,102069.84
2022-09-20T02:08:36.123Z,102070.38
2022-09-20T02:09:30.723Z,102068.44
2022-09-20T02:10:23.984Z,102064.81
2022-09-20T02:11:20.918Z,102065.94
2022-09-20T02:12:33.787Z,102061.63
2022-09-20T02:13:12.834Z,102067.28
2022-09-20T02:13:51.723Z,102060.34
2022-09-20T02:14:50.928Z,102058.25
2022-09-20T02:15:31.025Z,102055.22
2022-09-20T02:16:08.704Z,102057.22
2022-09-20T02:16:51.082Z,102055.72
2022-09-20T02:17:28.383Z,102057.69
2022-09-20T02:18:21.373Z,102063.13
2022-09-20T02:19:13.424Z,102059.47
2022-09-20T02:19:53.755Z,102051.84
2022-09-20T02:21:09.954Z,102059.13
2022-09-20T02:22:11.519Z,102055.25
2022-09-20T02:23:15.784Z,102064.25
2022-09-20T02:23:47.255Z,102059.44
2022-09-20T02:24:46.055Z,102059.78
2022-09-20T02:25:42.224Z,102057.31
2022-09-20T02:26:49.224Z,102057.47
2022-09-20T02:27:26.703Z,102057.81
2022-09-20T02:28:20.059Z,102058.00
2022-09-20T02:29:15.884Z,102055.09
2022-09-20T02:30:25.435Z,102057.50
2022-09-20T02:31:13.989Z,102050.75
2022-09-20T02:32:11.432Z,102056.22
2022-09-20T02:33:01.904Z,102053.09
2022-09-20T02:33:48.528Z,102058.25
2022-09-20T02:34:29.688Z,102059.50
2022-09-20T02:35:11.117Z,102057.38
2022-09-20T02:35:45.241Z,102066.81
2022-09-20T02:36:56.091Z,102055.28
2022-09-20T02:37:39.480Z,102061.84
2022-09-20T02:38:13.204Z,102057.88
2022-09-20T02:39:02.576Z,102062.66
2022-09-20T02:39:36.790Z,102067.88
2022-09-20T02:40:27.004Z,102069.19
2022-09-20T02:41:12.124Z,102057.66
2022-09-20T02:42:01.761Z,102060.28
2022-09-20T02:42:47.639Z,102055.47
2022-09-20T02:43:40.739Z,102059.75
2022-09-20T02:44:18.429Z,102052.50
2022-09-20T02:45:04.476Z,102054.47
2022-09-20T02:45:53.018Z,102057.78
2022-09-20T02:46:39.024Z,102058.28
2022-09-20T02:47:38.824Z,102051.00
2022-09-20T02:48:10.985Z,102051.97
2022-09-20T02:49:07.465Z,102056.44
2022-09-20T02:49:57.514Z,102063.50
2022-09-20T02:50:34.315Z,102059.03
2022-09-20T02:51:22.500Z,102056.19
2022-09-20T02:51:58.331Z,102062.31
2022-09-20T02:52:36.032Z,102059.50
2022-09-20T02:53:29.241Z,102070.06
2022-09-20T02:54:27.641Z,102062.94
2022-09-20T02:55:06.101Z,102055.31
2022-09-20T02:55:49.492Z,102052.28
2022-09-20T02:56:28.425Z,102067.31
2022-09-20T02:57:25.749Z,102055.28
2022-09-20T02:58:06.535Z,102063.19
2022-09-20T02:58:49.250Z,102065.88
2022-09-20T02:59:32.115Z,102063.84
2022-09-20T03:00:18.756Z,102065.38
2022-09-20T03:01:17.676Z,102067.13
2022-09-20T03:02:26.706Z,102069.22
2022-09-20T03:03:39.522Z,102069.09
2022-09-20T03:04:23.746Z,102070.09
2022-09-20T03:05:17.050Z,102059.28
2022-09-20T03:06:02.983Z,102065.00
2022-09-20T03:07:01.927Z,102069.22
2022-09-20T03:07:57.923Z,102058.88
2022-09-20T03:08:40.770Z,102060.38
2022-09-20T03:09:12.379Z,102062.69
2022-09-20T03:10:11.458Z,102065.56
2022-09-20T03:10:48.964Z,102059.97
2022-09-20T03:11:27.523Z,102056.28
2022-09-20T03:12:30.535Z,102060.06
2022-09-20T03:13:16.212Z,102056.06
2022-09-20T03:14:08.948Z,102058.25
2022-09-20T03:14:52.324Z,102061.56
2022-09-20T03:15:48.424Z,102062.56
2022-09-20T03:16:35.363Z,102057.28
2022-09-20T03:17:23.202Z,102061.25
2022-09-20T03:18:15.938Z,102053.00
2022-09-20T03:19:24.727Z,102061.94
2022-09-20T03:20:20.247Z,102062.25
2022-09-20T03:21:10.320Z,102062.09
2022-09-20T03:21:54.827Z,102056.22
2022-09-20T03:22:48.187Z,102066.78
2022-09-20T03:23:38.183Z,102069.88
2022-09-20T03:24:24.940Z,102064.97
2022-09-20T03:25:34.280Z,102075.41
2022-09-20T03:26:24.181Z,102065.66
2022-09-20T03:27:08.306Z,102062.56
2022-09-20T03:28:11.487Z,102066.50
2022-09-20T03:28:45.620Z,102057.03
2022-09-20T03:29:17.241Z,102065.66
2022-09-20T03:30:25.974Z,102068.44
2022-09-20T03:31:12.571Z,102067.53
2022-09-20T03:31:56.042Z,102066.38
2022-09-20T03:32:56.601Z,102064.84
2022-09-20T03:33:48.171Z,102067.84
2022-09-20T03:34:36.366Z,102066.72
2022-09-20T03:35:16.165Z,102067.53
2022-09-20T03:36:12.563Z,102069.97
2022-09-20T03:37:03.399Z,102063.16
2022-09-20T03:37:58.314Z,102058.69
2022-09-20T03:38:46.532Z,102076.00
2022-09-20T03:39:44.807Z,102070.97
2022-09-20T03:40:34.896Z,102074.16
2022-09-20T03:41:16.566Z,102075.63
2022-09-20T03:42:00.290Z,102069.88
2022-09-20T03:42:31.906Z,102065.88
2022-09-20T03:43:20.762Z,102068.84
2022-09-20T03:44:10.728Z,102078.06
2022-09-20T03:45:03.632Z,102076.00
2022-09-20T03:45:56.029Z,102075.19
2022-09-20T03:46:29.721Z,102072.38
2022-09-20T03:47:16.276Z,102078.28
2022-09-20T03:48:18.359Z,102076.94
2022-09-20T03:49:09.016Z,102075.28
2022-09-20T03:49:56.955Z,102073.63
2022-09-20T03:50:45.148Z,102062.31
2022-09-20T03:51:37.997Z,102062.44
2022-09-20T03:52:18.283Z,102064.75
2022-09-20T03:52:58.437Z,102063.56
2022-09-20T03:54:03.547Z,102063.56
2022-09-20T03:54:55.837Z,102064.72
2022-09-20T03:55:50.616Z,102067.72
2022-09-20T03:56:31.368Z,102074.13
2022-09-20T03:57:29.218Z,102059.16
2022-09-20T03:58:18.635Z,102065.13
2022-09-20T03:59:08.023Z,102060.50
2022-09-20T03:59:43.949Z,102060.22
2022-09-20T04:00:23.613Z,102058.78
2022-09-20T04:01:24.448Z,102055.59
2022-09-20T04:02:07.681Z,102060.91
2022-09-20T04:03:06.763Z,102060.59
2022-09-20T04:03:46.765Z,102067.75
2022-09-20T04:04:30.390Z,102064.41
2022-09-20T04:05:06.484Z,102059.97
2022-09-20T04:05:48.404Z,102066.00
2022-09-20T04:06:37.807Z,102062.38
2022-09-20T04:07:14.605Z,102060.19
2022-09-20T04:08:16.482Z,102061.09
2022-09-20T04:09:16.008Z,102061.38
2022-09-20T04:10:16.443Z,102066.00
2022-09-20T04:11:03.098Z,102065.75
2022-09-20T04:11:44.431Z,102063.41
2022-09-20T04:12:28.053Z,102062.13
2022-09-20T04:13:09.131Z,102069.63
2022-09-20T04:13:50.884Z,102064.66
2022-09-20T04:14:41.973Z,102069.88
2022-09-20T04:15:19.058Z,102067.38
2022-09-20T04:16:19.110Z,102069.28
2022-09-20T04:17:15.524Z,102070.63
2022-09-20T04:17:58.061Z,102059.44
2022-09-20T04:18:35.723Z,102058.81
2022-09-20T04:19:26.167Z,102069.03
2022-09-20T04:20:07.664Z,102059.88
2022-09-20T04:20:47.575Z,102059.72
2022-09-20T04:21:30.846Z,102068.41
2022-09-20T04:22:03.157Z,102065.06
2022-09-20T04:22:35.089Z,102067.56
2022-09-20T04:23:40.874Z,102067.75
2022-09-20T04:24:21.330Z,102062.78
2022-09-20T04:25:03.056Z,102068.06
2022-09-20T04:25:43.746Z,102058.72
2022-09-20T04:26:26.680Z,102066.13
2022-09-20T04:27:12.618Z,102070.50
2022-09-20T04:27:47.988Z,102067.84
2022-09-20T04:28:25.464Z,102068.22
2022-09-20T04:29:35.481Z,102072.53
2022-09-20T04:30:07.566Z,102066.91
2022-09-20T04:30:44.090Z,102069.63
2022-09-20T04:31:43.793Z,102066.97
2022-09-20T04:32:42.740Z,102068.94
2022-09-20T04:33:25.648Z,102075.88
2022-09-20T04:33:58.411Z,102071.72
2022-09-20T04:35:07.678Z,102075.38
2022-09-20T04:36:02.999Z,102074.53
2022-09-20T04:36:50.956Z,102073.94
2022-09-20T04:37:43.618Z,102072.50
2022-09-20T04:38:18.899Z,102085.72
2022-09-20T04:39:06.561Z,102079.91
2022-09-20T04:39:46.794Z,102078.09
2022-09-20T04:40:52.710Z,102086.00
2022-09-20T04:41:43.572Z,102084.19
2022-09-20T04:43:06.433Z,102076.59
2022-09-20T04:43:56.411Z,102079.28
2022-09-20T04:44:40.718Z,102076.78
2022-09-20T04:45:53.664Z,102075.13
2022-09-20T04:46:45.838Z,102080.94
2022-09-20T04:47:43.690Z,102080.00
2022-09-20T04:49:09.751Z,102084.94
2022-09-20T04:50:01.949Z,102086.94
2022-09-20T04:51:18.534Z,102084.13
2022-09-20T04:52:14.480Z,102089.25
2022-09-20T04:53:09.126Z,102086.28
2022-09-20T04:54:00.400Z,102089.59
2022-09-20T04:54:41.420Z,102089.28
2022-09-20T04:55:40.228Z,102090.75
2022-09-20T04:56:28.575Z,102095.06
2022-09-20T04:57:16.092Z,102096.72
2022-09-20T04:58:23.691Z,102104.19
2022-09-20T04:59:06.546Z,102100.09
2022-09-20T05:00:15.468Z,102105.38
2022-09-20T05:01:11.127Z,102098.59
2022-09-20T05:02:03.641Z,102097.94
2022-09-20T05:02:50.538Z,102103.56
2022-09-20T05:03:23.104Z,102100.91
2022-09-20T05:04:51.521Z,102090.31
2022-09-20T05:05:35.850Z,102086.69
2022-09-20T05:06:25.791Z,102092.00
2022-09-20T05:07:36.836Z,102094.81
2022-09-20T05:08:30.180Z,102092.31
2022-09-20T05:09:20.354Z,102093.66
2022-09-20T05:10:15.482Z,102100.28
2022-09-20T05:10:50.033Z,102092.81
2022-09-20T05:11:37.909Z,102098.63
2022-09-20T05:12:34.408Z,102095.00
2022-09-20T05:13:22.041Z,102096.28
2022-09-20T05:14:18.377Z,102097.28
2022-09-20T05:15:24.059Z,102108.91
2022-09-20T05:16:04.550Z,102102.94
2022-09-20T05:16:50.370Z,102102.94
2022-09-20T05:17:45.175Z,102105.25
2022-09-20T05:18:51.085Z,102102.09
2022-09-20T05:19:43.645Z,102109.91
2022-09-20T05:20:43.991Z,102107.25
2022-09-20T05:21:15.450Z,102111.53
2022-09-20T05:21:59.873Z,102102.75
2022-09-20T05:22:45.741Z,102102.59
2022-09-20T05:23:34.384Z,102105.59
2022-09-20T05:24:17.898Z,102103.41
2022-09-20T05:24:58.491Z,102105.91
2022-09-20T05:25:45.248Z,102106.41
2022-09-20T05:26:26.598Z,102103.25
2022-09-20T05:27:36.281Z,102101.59
2022-09-20T05:28:27.365Z,102104.25
2022-09-20T05:29:17.388Z,102101.09
2022-09-20T05:29:55.364Z,102105.59
2022-09-20T05:30:39.104Z,102108.88
2022-09-20T05:31:25.123Z,102101.94
2022-09-20T05:32:10.645Z,102108.56
2022-09-20T05:33:14.105Z,102105.25
2022-09-20T05:33:57.858Z,102106.41
2022-09-20T05:34:44.765Z,102106.56
2022-09-20T05:35:24.654Z,102104.94
2022-09-20T05:36:34.824Z,102109.91
2022-09-20T05:37:42.249Z,102112.38
2022-09-20T05:39:45.832Z,102107.91
2022-09-20T05:41:04.941Z,102109.53
2022-09-20T05:41:56.768Z,102110.22
2022-09-20T05:43:11.400Z,102114.84
2022-09-20T05:44:02.468Z,102119.66
2022-09-20T05:44:58.471Z,102112.84
2022-09-20T05:45:50.394Z,102114.19
2022-09-20T05:46:45.308Z,102109.72
2022-09-20T05:47:35.162Z,102108.88
2022-09-20T05:48:32.419Z,102110.56
2022-09-20T05:49:10.720Z,102109.72
2022-09-20T05:49:55.111Z,102118.19
2022-09-20T05:50:46.787Z,102115.19
2022-09-20T05:51:53.146Z,102114.53
2022-09-20T05:53:02.169Z,102120.50
2022-09-20T05:54:11.236Z,102118.84
2022-09-20T05:54:47.971Z,102125.13
2022-09-20T05:55:28.886Z,102118.19
2022-09-20T05:56:12.150Z,102126.13
2022-09-20T05:57:17.525Z,102123.47
2022-09-20T05:58:22.093Z,102126.78
2022-09-20T05:59:03.736Z,102120.78
2022-09-20T05:59:50.472Z,102119.13
2022-09-20T06:00:27.901Z,102126.41
2022-09-20T06:01:16.078Z,102123.94
2022-09-20T06:02:15.521Z,102124.09
2022-09-20T06:02:54.918Z,102130.06
2022-09-20T06:03:54.318Z,102120.28
2022-09-20T06:04:38.899Z,102121.28
2022-09-20T06:05:25.371Z,102119.47
2022-09-20T06:06:23.119Z,102118.25
2022-09-20T06:07:03.556Z,102117.25
2022-09-20T06:07:45.737Z,102125.06
2022-09-20T06:08:38.152Z,102128.38
2022-09-20T06:09:47.203Z,102125.72
2022-09-20T06:10:43.704Z,102123.72
2022-09-20T06:11:56.334Z,102126.53
2022-09-20T06:12:43.717Z,102129.19
2022-09-20T06:13:20.716Z,102136.50
2022-09-20T06:14:30.650Z,102133.34
2022-09-20T06:15:05.614Z,102136.63
2022-09-20T06:15:49.639Z,102136.28
2022-09-20T06:16:41.766Z,102131.94
2022-09-20T06:17:27.293Z,102132.56
2022-09-20T06:18:07.840Z,102140.16
2022-09-20T06:18:50.388Z,102144.34
2022-09-20T06:19:42.541Z,102140.16
2022-09-20T06:20:28.994Z,102141.97
2022-09-20T06:21:00.582Z,102135.13
2022-09-20T06:21:41.897Z,102138.72
2022-09-20T06:22:50.876Z,102140.38
2022-09-20T06:23:22.671Z,102143.03
2022-09-20T06:23:58.939Z,102151.13
2022-09-20T06:24:45.342Z,102142.69
2022-09-20T06:25:22.091Z,102144.22
2022-09-20T06:26:00.751Z,102140.44
2022-09-20T06:26:36.898Z,102137.25
2022-09-20T06:27:12.800Z,102139.59
2022-09-20T06:27:53.038Z,102141.25
2022-09-20T06:28:29.631Z,102140.44
2022-09-20T06:29:04.982Z,102142.75
2022-09-20T06:29:40.882Z,102146.09
2022-09-20T06:30:27.141Z,102139.25
2022-09-20T06:30:59.142Z,102141.09
2022-09-20T06:31:30.736Z,102140.31
2022-09-20T06:32:02.369Z,102143.78
2022-09-20T06:32:34.776Z,102145.28
2022-09-20T06:33:06.287Z,102141.50
2022-09-20T06:33:44.948Z,102147.13
2022-09-20T06:34:16.629Z,102146.13
2022-09-20T06:34:48.955Z,102141.41
2022-09-20T06:35:23.090Z,102142.25
2022-09-20T06:36:20.359Z,102150.50
2022-09-20T06:37:14.263Z,102144.47
2022-09-20T06:38:21.236Z,102149.09
2022-09-20T06:39:38.617Z,102151.88
2022-09-20T06:41:19.877Z,102150.06
2022-09-20T06:41:51.702Z,102146.88
2022-09-20T06:42:27.010Z,102141.09
2022-09-20T06:43:00.778Z,102152.53
2022-09-20T06:43:32.477Z,102150.78
2022-09-20T06:44:06.409Z,102148.72
2022-09-20T06:44:43.347Z,102152.16
2022-09-20T06:45:15.053Z,102149.97
2022-09-20T06:45:47.203Z,102155.59
2022-09-20T06:46:19.280Z,102155.56
2022-09-20T06:46:54.212Z,102158.03
2022-09-20T06:47:27.048Z,102149.16
2022-09-20T06:48:00.170Z,102155.69
2022-09-20T06:48:32.032Z,102155.00
2022-09-20T06:49:04.341Z,102153.84
2022-09-20T06:49:36.496Z,102149.16
2022-09-20T06:50:15.860Z,102152.50
2022-09-20T06:50:47.553Z,102157.78
2022-09-20T06:51:19.417Z,102154.06
2022-09-20T06:51:51.016Z,102156.56
2022-09-20T06:52:23.089Z,102156.63
2022-09-20T06:52:55.592Z,102157.16
2022-09-20T06:53:32.703Z,102154.88
2022-09-20T06:54:06.101Z,102159.38
2022-09-20T06:54:38.040Z,102155.19
2022-09-20T06:55:14.152Z,102162.19
2022-09-20T06:55:46.744Z,102154.47
2022-09-20T06:56:20.794Z,102160.56
2022-09-20T06:56:52.325Z,102158.94
2022-09-20T06:57:30.819Z,102160.13
2022-09-20T06:58:02.464Z,102156.66
2022-09-20T06:58:33.997Z,102157.47
2022-09-20T06:59:10.357Z,102160.56
2022-09-20T06:59:41.948Z,102154.19
2022-09-20T07:00:15.821Z,102157.66
2022-09-20T07:00:48.293Z,102152.50
2022-09-20T07:01:29.799Z,102153.34
2022-09-20T07:02:02.480Z,102154.31
2022-09-20T07:02:34.093Z,102157.00
2022-09-20T07:03:06.242Z,102159.25
2022-09-20T07:03:38.469Z,102155.94
2022-09-20T07:04:10.043Z,102165.78
2022-09-20T07:04:41.545Z,102162.84
2022-09-20T07:05:17.107Z,102165.69
2022-09-20T07:05:49.218Z,102161.09
2022-09-20T07:06:20.755Z,102167.63
2022-09-20T07:06:54.264Z,102168.00
2022-09-20T07:07:26.168Z,102168.97
2022-09-20T07:07:58.647Z,102167.03
2022-09-20T07:08:30.210Z,102170.13
2022-09-20T07:09:01.817Z,102166.91
2022-09-20T07:09:33.316Z,102170.59
2022-09-20T07:10:05.182Z,102177.06
2022-09-20T07:10:36.723Z,102172.50
2022-09-20T07:11:12.151Z,102169.75
2022-09-20T07:11:45.074Z,102174.66
2022-09-20T07:12:17.136Z,102179.44
2022-09-20T07:12:49.728Z,102171.06
2022-09-20T07:13:22.486Z,102177.13
2022-09-20T07:13:58.290Z,102182.41
2022-09-20T07:14:29.885Z,102178.22
2022-09-20T07:15:01.556Z,102175.16
2022-09-20T07:15:34.590Z,102176.56
2022-09-20T07:16:08.324Z,102182.28
2022-09-20T07:16:40.074Z,102181.72
2022-09-20T07:17:11.760Z,102173.91
2022-09-20T07:17:45.990Z,102177.44
2022-09-20T07:18:17.504Z,102176.63
2022-09-20T07:18:49.357Z,102181.63
2022-09-20T07:19:22.962Z,102176.41
2022-09-20T07:19:56.581Z,102177.44
2022-09-20T07:20:28.374Z,102181.78
2022-09-20T07:21:00.762Z,102180.38
2022-09-20T07:21:32.296Z,102177.03
2022-09-20T07:22:03.862Z,102180.59
2022-09-20T07:22:35.487Z,102174.53
2022-09-20T07:23:07.337Z,102176.81
2022-09-20T07:23:38.988Z,102174.03
2022-09-20T07:24:10.557Z,102172.66
2022-09-20T07:24:42.176Z,102174.31
2022-09-20T07:25:13.760Z,102165.56
2022-09-20T07:25:45.297Z,102177.63
2022-09-20T07:26:35.396Z,102173.25
2022-09-20T07:27:07.186Z,102173.13
2022-09-20T07:27:39.734Z,102174.38
2022-09-20T07:28:11.364Z,102174.63
2022-09-20T07:28:42.862Z,102166.00
2022-09-20T07:29:14.360Z,102174.44
2022-09-20T07:29:46.271Z,102167.25
2022-09-20T07:30:18.875Z,102173.41
2022-09-20T07:30:50.374Z,102176.94
2022-09-20T07:31:23.962Z,102174.91
2022-09-20T07:31:56.723Z,102173.81
2022-09-20T07:32:28.360Z,102168.91
2022-09-20T07:33:00.235Z,102171.84
2022-09-20T07:33:31.752Z,102173.84
2022-09-20T07:34:03.242Z,102174.03
2022-09-20T07:34:34.792Z,102175.91
2022-09-20T07:35:10.645Z,102177.38
2022-09-20T07:35:42.165Z,102168.16
2022-09-20T07:36:13.757Z,102170.63
2022-09-20T07:36:45.299Z,102172.28
2022-09-20T07:37:18.424Z,102172.25
2022-09-20T07:37:56.555Z,102176.81
2022-09-20T07:38:28.217Z,102173.53
2022-09-20T07:38:59.754Z,102164.06
2022-09-20T07:39:31.289Z,102177.59
2022-09-20T07:40:05.115Z,102180.91
2022-09-20T07:40:36.779Z,102173.13
2022-09-20T07:41:09.448Z,102174.00
2022-09-20T07:41:41.043Z,102182.69
2022-09-20T07:42:13.350Z,102179.63
2022-09-20T07:42:46.042Z,102174.66
2022-09-20T07:43:17.577Z,102174.47
2022-09-20T07:43:50.749Z,102178.16
2022-09-20T07:44:24.917Z,102173.31
2022-09-20T07:44:56.444Z,102183.44
2022-09-20T07:45:28.116Z,102176.22
2022-09-20T07:45:59.963Z,102181.81
2022-09-20T07:46:36.103Z,102182.00
2022-09-20T07:47:10.211Z,102171.81
2022-09-20T07:47:42.149Z,102172.53
2022-09-20T07:48:14.808Z,102163.91
2022-09-20T07:48:46.440Z,102161.56
2022-09-20T07:49:18.740Z,102168.97
2022-09-20T07:49:50.228Z,102167.66
2022-09-20T07:50:22.098Z,102161.91
2022-09-20T07:50:55.841Z,102161.53
2022-09-20T07:51:27.564Z,102157.84
2022-09-20T07:51:59.403Z,102157.59
2022-09-20T07:52:30.996Z,102155.56
2022-09-20T07:53:03.889Z,102159.66
2022-09-20T07:53:36.297Z,102154.84
2022-09-20T07:54:07.804Z,102150.94
2022-09-20T07:54:39.907Z,102148.63
2022-09-20T07:55:11.409Z,102147.25
2022-09-20T07:55:42.876Z,102143.63
2022-09-20T07:56:16.041Z,102140.19
2022-09-20T07:56:47.965Z,102143.56
2022-09-20T07:57:19.774Z,102142.47
2022-09-20T07:57:51.449Z,102145.66
2022-09-20T07:58:22.993Z,102148.06
2022-09-20T07:58:54.579Z,102141.84
2022-09-20T07:59:26.358Z,102141.06
2022-09-20T07:59:57.876Z,102138.28
2022-09-20T08:00:29.391Z,102147.94
2022-09-20T08:01:02.736Z,102137.94
2022-09-20T08:01:34.367Z,102142.34
2022-09-20T08:02:06.356Z,102138.81
2022-09-20T08:02:38.036Z,102133.66
2022-09-20T08:03:09.584Z,102139.84
2022-09-20T08:03:42.890Z,102142.03
2022-09-20T08:04:14.631Z,102134.97
2022-09-20T08:04:47.250Z,102139.16
2022-09-20T08:05:18.763Z,102138.88